South Egremont, Massachusetts
Current Conditions -  °F | °C
As of 9:54 AM on Sunday 28 Dec 2014 (Local Time) from KPSF Reporting Station
Overcast Overcast  
Wind Chill: 38°   Ceiling: 2300
Heat Index: 42°   Visibility: 10mi
Dew Point: 40°   Wind: 7mph
Humidity: 92%   Direction: 250°WSW
Pressure: 29.82"   Gusts: NA
Location:  42.16°N, 73.42°W
Report Text: KPSF 281454Z AUTO 25006KT 10SM OVC023 06/04 A2982 RMK AO2 RAE01 SLP099 P0000 60011 T00560044 55000
Loading
Personal Weather Stations






























Interactive Weather Map New forecast layout! Learn more

10-Day Weather Forecast

Advertisements
Track Severe Weather on mobile